Time;durP1;ratioP1;P1;durP2;ratioP2;P2;SDS_P1;SDS_P2;PMS_P1;PMS_P2;Temp;Humidity;BMP_temperature;BMP_pressure;BME280_temperature;BME280_humidity;BME280_pressure;Samples;Min_cycle;Max_cycle;Signal;HPM_P1;HPM_P2
2022/02/18 00:00:47;;;;;;;7.77;2.50;;;7.70;99.90;;;;;;5088118;28;20465;-41
2022/02/18 00:03:16;;;;;;;10.57;2.60;;;7.80;99.90;;;;;;5089972;28;20501;-43
2022/02/18 00:05:43;;;;;;;8.53;2.80;;;7.80;99.90;;;;;;5089771;28;20793;-41
2022/02/18 00:08:09;;;;;;;9.93;2.70;;;7.80;99.90;;;;;;5090126;28;20418;-42
2022/02/18 00:10:35;;;;;;;12.43;4.00;;;7.80;99.90;;;;;;5088523;28;20788;-42
2022/02/18 00:13:01;;;;;;;7.73;3.13;;;8.00;99.90;;;;;;5080953;28;20188;-40
2022/02/18 00:15:27;;;;;;;11.00;3.70;;;8.00;99.90;;;;;;5090249;28;20434;-43
2022/02/18 00:17:54;;;;;;;6.63;3.00;;;7.80;99.90;;;;;;5089981;28;20426;-41
2022/02/18 00:20:20;;;;;;;12.40;3.90;;;8.00;99.90;;;;;;5089371;28;20426;-40
2022/02/18 00:22:46;;;;;;;14.00;3.27;;;7.90;99.90;;;;;;5089914;28;20527;-41
2022/02/18 00:25:11;;;;;;;9.87;3.97;;;8.00;99.90;;;;;;5088234;28;20454;-41
2022/02/18 00:27:39;;;;;;;11.67;3.63;;;8.10;99.90;;;;;;5078933;28;20192;-40
2022/02/18 00:30:06;;;;;;;10.53;3.73;;;7.80;99.90;;;;;;5088596;28;20208;-41
2022/02/18 00:32:32;;;;;;;10.40;4.60;;;7.70;99.90;;;;;;5090092;28;20920;-42
2022/02/18 00:34:59;;;;;;;10.90;3.90;;;7.60;99.90;;;;;;5089597;28;20448;-43
2022/02/18 00:37:25;;;;;;;6.90;3.87;;;7.70;99.90;;;;;;5089769;28;20422;-42
2022/02/18 00:39:51;;;;;;;12.47;4.70;;;7.80;99.90;;;;;;5088783;28;20423;-44
2022/02/18 00:42:17;;;;;;;8.20;4.27;;;7.80;99.90;;;;;;5080870;28;20510;-41
2022/02/18 00:44:43;;;;;;;15.47;4.70;;;8.00;99.90;;;;;;5089545;28;20461;-40
2022/02/18 00:47:10;;;;;;;13.83;3.93;;;7.80;99.90;;;;;;5089624;28;20316;-45
2022/02/18 00:49:36;;;;;;;10.07;4.33;;;7.80;99.90;;;;;;5088952;28;20427;-43
2022/02/18 00:52:02;;;;;;;10.90;4.07;;;7.60;99.90;;;;;;5089383;28;20449;-40
2022/02/18 00:54:28;;;;;;;11.47;4.77;;;7.50;99.90;;;;;;5075680;28;20423;-42
2022/02/18 00:56:54;;;;;;;13.83;5.17;;;7.70;99.90;;;;;;5083430;28;20453;-41
2022/02/18 00:59:20;;;;;;;9.30;4.20;;;7.50;99.90;;;;;;5085591;28;20257;-43
2022/02/18 01:01:45;;;;;;;15.83;4.23;;;7.70;99.90;;;;;;5087270;28;20707;-40
2022/02/18 01:04:11;;;;;;;14.20;3.90;;;7.70;99.90;;;;;;5089232;28;20423;-44
2022/02/18 01:06:37;;;;;;;12.80;3.70;;;7.60;99.90;;;;;;5088944;28;20217;-46
2022/02/18 01:09:03;;;;;;;12.63;4.07;;;7.50;99.90;;;;;;5087876;28;20478;-42
2022/02/18 01:11:29;;;;;;;11.60;4.20;;;7.60;99.90;;;;;;5086933;28;20188;-44
2022/02/18 01:13:55;;;;;;;6.87;3.10;;;7.90;99.90;;;;;;5059137;28;20426;-45
2022/02/18 01:16:20;;;;;;;12.83;4.00;;;7.60;99.90;;;;;;5087507;28;20567;-41
2022/02/18 01:18:46;;;;;;;8.30;3.73;;;7.70;99.90;;;;;;5088990;28;20192;-40
2022/02/18 01:21:12;;;;;;;13.57;4.63;;;7.70;99.90;;;;;;5088078;28;20265;-45
2022/02/18 01:23:38;;;;;;;15.30;3.87;;;7.70;99.90;;;;;;5088612;28;20199;-44
2022/02/18 01:26:05;;;;;;;12.63;4.17;;;7.70;99.90;;;;;;5088806;28;20756;-43
2022/02/18 01:28:31;;;;;;;12.13;3.83;;;7.80;99.90;;;;;;5076342;28;20454;-42
2022/02/18 01:30:57;;;;;;;12.23;3.50;;;7.90;99.90;;;;;;5087955;28;20434;-40
2022/02/18 01:33:23;;;;;;;11.20;4.30;;;7.70;99.90;;;;;;5087178;28;20425;-40
2022/02/18 01:35:50;;;;;;;19.03;6.30;;;7.90;99.90;;;;;;5088668;28;20900;-44
2022/02/18 01:38:17;;;;;;;9.27;3.17;;;7.70;99.90;;;;;;5088057;28;20442;-40
2022/02/18 01:40:44;;;;;;;16.97;4.20;;;7.80;99.90;;;;;;5087406;28;20537;-40
2022/02/18 01:43:10;;;;;;;12.40;3.10;;;7.80;99.90;;;;;;5079368;28;20811;-39
2022/02/18 01:45:35;;;;;;;7.23;3.80;;;7.80;99.90;;;;;;5088425;28;20422;-43
2022/02/18 01:48:01;;;;;;;12.50;3.73;;;7.70;99.90;;;;;;5088732;28;20860;-40
2022/02/18 01:50:27;;;;;;;8.77;3.60;;;7.80;99.90;;;;;;5086640;28;20587;-46
2022/02/18 01:52:54;;;;;;;12.30;4.00;;;7.80;99.90;;;;;;5087753;28;20192;-41
2022/02/18 01:55:22;;;;;;;10.67;3.97;;;7.70;99.90;;;;;;5088459;28;20218;-42
2022/02/18 01:57:56;;;;;;;14.23;3.40;;;7.60;99.90;;;;;;5080955;28;20430;-45
2022/02/18 02:00:27;;;;;;;11.47;3.50;;;7.70;99.90;;;;;;5085015;28;20417;-42
2022/02/18 02:02:54;;;;;;;8.90;2.97;;;7.70;99.90;;;;;;5087747;28;20451;-41
2022/02/18 02:05:21;;;;;;;11.13;3.30;;;7.70;99.90;;;;;;5087813;28;20740;-43
2022/02/18 02:07:47;;;;;;;11.33;3.60;;;7.70;99.90;;;;;;5088150;28;20851;-41
2022/02/18 02:10:15;;;;;;;9.57;3.40;;;7.70;99.90;;;;;;5086538;28;20427;-40
2022/02/18 02:12:50;;;;;;;14.47;3.80;;;8.00;99.90;;;;;;5080862;28;20446;-42
2022/02/18 02:15:17;;;;;;;14.00;3.13;;;7.80;99.90;;;;;;5083885;28;20422;-41
2022/02/18 02:17:43;;;;;;;10.20;3.27;;;7.80;99.90;;;;;;5081524;28;20430;-43
2022/02/18 02:20:10;;;;;;;10.80;3.60;;;7.70;99.90;;;;;;5085740;28;20491;-46
2022/02/18 02:22:36;;;;;;;9.60;3.30;;;7.80;99.90;;;;;;5087657;28;20466;-41
2022/02/18 02:25:03;;;;;;;14.00;3.70;;;7.70;99.90;;;;;;5087639;28;20434;-40
2022/02/18 02:27:30;;;;;;;13.47;4.00;;;7.90;99.90;;;;;;5081100;28;21032;-44
2022/02/18 02:29:56;;;;;;;13.60;3.33;;;7.80;99.90;;;;;;5081940;28;20431;-40
2022/02/18 02:32:22;;;;;;;11.10;3.60;;;7.80;99.90;;;;;;5087200;28;20576;-41
2022/02/18 02:34:48;;;;;;;10.90;3.00;;;7.90;99.90;;;;;;5087422;28;20188;-44
2022/02/18 02:37:14;;;;;;;9.77;2.90;;;8.20;99.90;;;;;;5087571;28;20426;-40
2022/02/18 02:39:40;;;;;;;10.10;3.50;;;8.00;99.90;;;;;;5087086;28;20807;-44
2022/02/18 02:42:07;;;;;;;10.80;2.93;;;8.00;99.90;;;;;;5085704;28;20454;-40
2022/02/18 02:44:33;;;;;;;11.13;3.23;;;7.90;99.90;;;;;;5081451;28;20426;-40
2022/02/18 02:46:59;;;;;;;10.60;3.43;;;8.00;99.90;;;;;;5085941;28;20414;-41
2022/02/18 02:49:25;;;;;;;15.53;2.87;;;7.70;99.90;;;;;;5087727;28;20897;-41
2022/02/18 02:51:51;;;;;;;22.97;3.63;;;7.80;99.90;;;;;;5086593;28;20932;-40
2022/02/18 02:54:17;;;;;;;12.40;3.03;;;7.80;99.90;;;;;;5087370;28;20446;-41
2022/02/18 02:56:42;;;;;;;13.70;4.57;;;8.00;99.90;;;;;;5087156;28;20208;-41
2022/02/18 02:59:08;;;;;;;9.97;3.40;;;7.90;99.90;;;;;;5077802;28;20430;-41
2022/02/18 03:01:34;;;;;;;11.03;3.33;;;8.00;99.90;;;;;;5086118;28;20329;-44
2022/02/18 03:04:00;;;;;;;8.77;2.93;;;8.00;99.90;;;;;;5086242;28;20235;-41
2022/02/18 03:06:25;;;;;;;12.27;2.87;;;8.00;99.90;;;;;;5085779;28;20834;-43
2022/02/18 03:08:51;;;;;;;11.30;3.83;;;8.10;99.90;;;;;;5086418;28;20584;-40
2022/02/18 03:11:17;;;;;;;14.30;3.50;;;8.00;99.90;;;;;;5086787;28;20713;-40
2022/02/18 03:13:45;;;;;;;13.57;3.67;;;8.10;99.90;;;;;;5077235;28;20185;-43
2022/02/18 03:16:12;;;;;;;10.20;3.13;;;8.20;99.90;;;;;;5086986;28;20426;-42
2022/02/18 03:18:38;;;;;;;12.80;2.80;;;8.00;99.90;;;;;;5087316;28;20693;-40
2022/02/18 03:21:04;;;;;;;10.40;3.13;;;8.10;99.90;;;;;;5086807;28;20422;-44
2022/02/18 03:23:31;;;;;;;14.97;3.83;;;8.10;99.90;;;;;;5086995;28;20441;-43
2022/02/18 03:25:57;;;;;;;15.33;3.90;;;8.00;99.90;;;;;;5087499;28;20429;-44
2022/02/18 03:28:23;;;;;;;14.03;3.83;;;8.10;99.90;;;;;;5077966;28;20453;-43
2022/02/18 03:30:48;;;;;;;8.80;4.23;;;8.20;99.90;;;;;;5077682;28;20423;-40
2022/02/18 03:33:14;;;;;;;11.93;3.40;;;8.30;99.90;;;;;;5086886;28;20527;-41
2022/02/18 03:35:41;;;;;;;10.20;2.93;;;8.40;99.90;;;;;;5087328;28;20351;-42
2022/02/18 03:38:07;;;;;;;14.37;4.20;;;8.30;99.90;;;;;;5087314;28;20938;-40
2022/02/18 03:40:33;;;;;;;12.00;4.43;;;8.30;99.90;;;;;;5086816;28;20427;-41
2022/02/18 03:42:59;;;;;;;18.30;3.90;;;8.20;99.90;;;;;;5080563;28;20459;-41
2022/02/18 03:45:26;;;;;;;8.30;3.30;;;8.30;99.90;;;;;;5076526;28;20780;-40
2022/02/18 03:47:52;;;;;;;16.13;4.60;;;8.30;99.90;;;;;;5086711;28;20507;-44
2022/02/18 03:50:18;;;;;;;11.10;3.63;;;8.60;99.90;;;;;;5086430;28;21070;-45
2022/02/18 03:52:44;;;;;;;12.27;4.20;;;8.40;99.90;;;;;;5086707;28;20994;-41
2022/02/18 03:55:10;;;;;;;15.50;4.23;;;8.60;99.90;;;;;;5086833;28;20944;-41
2022/02/18 03:57:36;;;;;;;14.10;3.30;;;8.50;99.90;;;;;;5084267;28;20429;-40
2022/02/18 04:00:07;;;;;;;13.00;3.70;;;8.40;99.90;;;;;;5075413;28;20430;-42
2022/02/18 04:02:33;;;;;;;8.60;2.70;;;8.40;99.90;;;;;;5086594;28;20462;-44
2022/02/18 04:04:59;;;;;;;14.40;3.90;;;8.30;99.90;;;;;;5089732;28;20505;-45
2022/02/18 04:07:25;;;;;;;19.03;3.60;;;8.50;99.90;;;;;;5088831;28;20430;-41
2022/02/18 04:09:50;;;;;;;14.53;3.17;;;8.40;99.90;;;;;;5088640;28;20418;-43
2022/02/18 04:12:16;;;;;;;13.43;3.93;;;8.30;99.90;;;;;;5089995;28;20607;-42
2022/02/18 04:14:42;;;;;;;11.20;2.90;;;8.30;99.90;;;;;;5082806;28;20268;-47
2022/02/18 04:17:07;;;;;;;13.10;4.00;;;8.40;99.90;;;;;;5088852;28;20192;-42
2022/02/18 04:19:33;;;;;;;11.70;3.20;;;8.40;99.90;;;;;;5089840;28;20207;-43
2022/02/18 04:22:02;;;;;;;9.70;3.50;;;8.50;99.90;;;;;;5089894;28;20224;-41
2022/02/18 04:24:28;;;;;;;9.77;3.57;;;8.50;99.90;;;;;;5089983;28;20181;-42
2022/02/18 04:26:54;;;;;;;13.27;4.23;;;8.50;99.90;;;;;;5089829;28;20419;-43
2022/02/18 04:29:20;;;;;;;13.93;4.83;;;8.50;99.90;;;;;;5079018;28;20430;-41
2022/02/18 04:31:45;;;;;;;8.50;3.20;;;8.40;99.90;;;;;;5090105;28;20198;-41
2022/02/18 04:34:11;;;;;;;20.57;3.20;;;8.50;99.90;;;;;;5090002;28;20192;-40
2022/02/18 04:36:37;;;;;;;15.00;4.40;;;8.50;99.90;;;;;;5089649;28;20287;-41
2022/02/18 04:39:03;;;;;;;13.67;4.47;;;8.40;99.90;;;;;;5090165;28;20658;-41
2022/02/18 04:41:29;;;;;;;9.80;3.17;;;8.50;99.90;;;;;;5088509;28;20196;-41
2022/02/18 04:43:54;;;;;;;9.23;2.90;;;8.50;99.90;;;;;;5083256;28;20979;-41
2022/02/18 04:46:20;;;;;;;12.03;3.60;;;8.70;99.90;;;;;;5086403;28;20192;-40
2022/02/18 04:48:46;;;;;;;11.43;3.20;;;8.80;99.90;;;;;;5089599;28;20655;-44
2022/02/18 04:51:11;;;;;;;7.73;2.50;;;8.70;99.90;;;;;;5088802;28;20188;-43
2022/02/18 04:53:37;;;;;;;11.20;3.33;;;8.60;99.90;;;;;;5089552;28;20233;-42
2022/02/18 04:56:04;;;;;;;17.97;5.63;;;8.50;99.90;;;;;;5089075;28;20613;-42
2022/02/18 04:58:31;;;;;;;9.00;3.77;;;8.60;99.90;;;;;;5082687;28;20435;-41
2022/02/18 05:00:56;;;;;;;11.47;3.40;;;8.70;99.90;;;;;;5082878;28;20422;-41
2022/02/18 05:03:22;;;;;;;12.43;3.10;;;8.50;99.90;;;;;;5088915;28;20458;-40
2022/02/18 05:05:47;;;;;;;9.03;3.23;;;8.50;99.90;;;;;;5089062;28;20283;-40
2022/02/18 05:08:13;;;;;;;5.33;2.80;;;8.60;99.90;;;;;;5089203;28;20673;-41
2022/02/18 05:10:39;;;;;;;9.73;3.30;;;8.50;99.90;;;;;;5087346;28;20303;-40
2022/02/18 05:13:04;;;;;;;15.20;3.27;;;8.40;99.90;;;;;;5086853;28;20192;-39
2022/02/18 05:15:32;;;;;;;14.77;3.70;;;8.50;99.90;;;;;;5081862;28;20325;-44
2022/02/18 05:18:01;;;;;;;13.23;3.20;;;8.60;99.90;;;;;;5089027;28;20203;-40
2022/02/18 05:20:27;;;;;;;12.00;4.23;;;8.60;99.90;;;;;;5088647;28;20834;-44
2022/02/18 05:22:52;;;;;;;12.93;3.53;;;8.40;99.90;;;;;;5089142;28;20913;-41
2022/02/18 05:25:18;;;;;;;15.73;3.30;;;8.40;99.90;;;;;;5088898;28;20226;-40
2022/02/18 05:27:44;;;;;;;9.30;3.03;;;8.30;99.90;;;;;;5088854;28;20615;-41
2022/02/18 05:30:10;;;;;;;16.60;3.73;;;8.30;99.90;;;;;;5078685;28;20441;-40
2022/02/18 05:32:35;;;;;;;13.23;4.83;;;8.40;99.90;;;;;;5088416;28;20269;-42
2022/02/18 05:35:01;;;;;;;13.70;2.90;;;8.40;99.90;;;;;;5088750;28;20430;-44
2022/02/18 05:37:27;;;;;;;10.63;3.40;;;8.60;99.90;;;;;;5088957;28;20189;-41
2022/02/18 05:39:52;;;;;;;12.97;3.40;;;8.40;99.90;;;;;;5088191;28;20188;-40
2022/02/18 05:42:18;;;;;;;11.07;3.10;;;8.50;99.90;;;;;;5076625;28;20224;-42
2022/02/18 05:44:43;;;;;;;9.70;3.20;;;8.40;99.90;;;;;;5074543;28;20620;-41
2022/02/18 05:47:09;;;;;;;11.00;3.33;;;8.40;99.90;;;;;;5082764;28;20197;-40
2022/02/18 05:49:35;;;;;;;10.80;3.40;;;8.60;99.90;;;;;;5084688;28;20206;-41
2022/02/18 05:52:00;;;;;;;9.57;3.33;;;8.50;99.90;;;;;;5087899;28;20207;-40
2022/02/18 05:54:26;;;;;;;12.90;2.80;;;8.50;99.90;;;;;;5087886;28;20195;-43
2022/02/18 05:56:52;;;;;;;10.00;2.83;;;8.40;99.90;;;;;;5088347;28;20216;-43
2022/02/18 05:59:19;;;;;;;12.83;2.70;;;8.30;99.90;;;;;;5077785;28;20215;-41
2022/02/18 06:01:45;;;;;;;9.77;2.97;;;8.30;99.90;;;;;;5087732;28;20216;-42
2022/02/18 06:04:14;;;;;;;9.80;3.27;;;8.30;99.90;;;;;;5088042;28;20423;-40
2022/02/18 06:06:41;;;;;;;11.50;3.23;;;8.30;99.90;;;;;;5088078;28;20422;-40
2022/02/18 06:09:06;;;;;;;8.63;3.27;;;8.30;99.90;;;;;;5087679;28;20798;-41
2022/02/18 06:11:32;;;;;;;9.53;2.77;;;8.30;99.90;;;;;;5086217;28;20430;-41
2022/02/18 06:13:58;;;;;;;10.83;2.80;;;8.30;99.90;;;;;;5082171;28;20196;-40
2022/02/18 06:16:24;;;;;;;8.40;2.53;;;8.40;99.90;;;;;;5085298;28;20192;-40
2022/02/18 06:18:50;;;;;;;9.73;2.63;;;8.30;99.90;;;;;;5088198;28;20431;-42
2022/02/18 06:21:16;;;;;;;6.57;2.93;;;8.30;99.90;;;;;;5087301;28;20529;-40
2022/02/18 06:23:41;;;;;;;10.77;2.60;;;8.30;99.90;;;;;;5088127;28;20238;-39
2022/02/18 06:26:07;;;;;;;8.67;2.90;;;8.40;99.90;;;;;;5087453;28;20193;-40
2022/02/18 06:28:33;;;;;;;7.33;2.63;;;8.30;99.90;;;;;;5084978;28;20184;-40
2022/02/18 06:30:58;;;;;;;8.67;2.63;;;8.20;99.90;;;;;;5082327;28;20216;-41
2022/02/18 06:33:24;;;;;;;11.30;2.43;;;8.20;99.90;;;;;;5087745;28;20259;-40
2022/02/18 06:35:50;;;;;;;12.63;2.97;;;8.10;99.90;;;;;;5087608;28;20196;-40
2022/02/18 06:38:16;;;;;;;11.67;2.70;;;8.10;99.90;;;;;;5087282;28;20453;-41
2022/02/18 06:40:41;;;;;;;7.47;2.87;;;8.20;99.90;;;;;;5086877;28;20437;-39
2022/02/18 06:43:07;;;;;;;9.40;2.00;;;8.20;99.90;;;;;;5084915;28;20640;-41
2022/02/18 06:45:34;;;;;;;7.00;2.50;;;7.90;99.90;;;;;;5077541;28;20197;-40
2022/02/18 06:47:59;;;;;;;10.77;3.27;;;7.90;99.90;;;;;;5085995;28;20635;-39
2022/02/18 06:50:25;;;;;;;18.03;3.20;;;8.00;99.90;;;;;;5085685;28;20427;-39
2022/02/18 06:52:51;;;;;;;10.57;3.37;;;8.20;99.90;;;;;;5086715;28;20675;-39
2022/02/18 06:55:18;;;;;;;11.67;2.83;;;8.00;99.90;;;;;;5083881;28;20445;-40
2022/02/18 06:57:45;;;;;;;12.93;2.93;;;8.00;99.90;;;;;;5083268;28;20192;-40
2022/02/18 07:00:13;;;;;;;9.73;2.90;;;8.10;99.90;;;;;;5075221;28;20831;-41
2022/02/18 07:02:39;;;;;;;11.37;3.20;;;8.10;99.90;;;;;;5084153;28;20538;-41
2022/02/18 07:05:07;;;;;;;18.63;3.37;;;8.00;99.90;;;;;;5086587;28;20418;-40
2022/02/18 07:07:34;;;;;;;5.83;2.50;;;8.00;99.90;;;;;;5084949;28;20468;-40
2022/02/18 07:10:00;;;;;;;19.33;3.40;;;8.10;99.90;;;;;;5086323;28;20426;-39
2022/02/18 07:12:27;;;;;;;11.07;2.77;;;7.90;99.90;;;;;;5087319;28;20720;-40
2022/02/18 07:14:54;;;;;;;12.40;3.30;;;7.80;99.90;;;;;;5080972;28;20558;-41
2022/02/18 07:17:22;;;;;;;12.40;3.67;;;7.90;99.90;;;;;;5084906;28;20454;-40
2022/02/18 07:19:47;;;;;;;9.50;3.00;;;7.80;99.90;;;;;;5086937;28;20768;-40
2022/02/18 07:22:13;;;;;;;9.57;2.80;;;8.10;99.90;;;;;;5086868;28;20505;-40
2022/02/18 07:24:39;;;;;;;13.37;3.17;;;7.80;99.90;;;;;;5087323;28;20212;-39
2022/02/18 07:27:05;;;;;;;7.10;2.53;;;7.80;99.90;;;;;;5087286;28;20433;-40
2022/02/18 07:29:31;;;;;;;7.03;2.60;;;8.10;99.90;;;;;;5080570;28;20197;-40
2022/02/18 07:31:56;;;;;;;10.73;3.20;;;7.70;99.90;;;;;;5080455;28;20251;-40
2022/02/18 07:34:22;;;;;;;11.27;3.63;;;8.00;99.90;;;;;;5086813;28;20192;-41
2022/02/18 07:36:47;;;;;;;10.90;3.70;;;7.80;99.90;;;;;;5086999;28;20813;-42
2022/02/18 07:39:13;;;;;;;10.70;3.03;;;7.90;99.90;;;;;;5089070;28;20188;-40
2022/02/18 07:41:39;;;;;;;17.77;4.07;;;8.00;99.90;;;;;;5090378;28;20208;-42
2022/02/18 07:44:05;;;;;;;13.90;3.23;;;7.90;99.90;;;;;;5088170;28;20192;-40
2022/02/18 07:46:30;;;;;;;13.67;3.13;;;7.90;99.90;;;;;;5084907;28;20199;-39
2022/02/18 07:48:56;;;;;;;13.70;3.60;;;7.90;99.90;;;;;;5089697;28;20955;-41
2022/02/18 07:51:22;;;;;;;14.30;3.73;;;7.80;99.90;;;;;;5089579;28;20188;-39
2022/02/18 07:53:47;;;;;;;8.70;2.87;;;7.90;99.90;;;;;;5088585;28;20184;-42
2022/02/18 07:56:13;;;;;;;14.43;3.63;;;8.00;99.90;;;;;;5089883;28;20203;-40
2022/02/18 07:58:39;;;;;;;13.30;4.10;;;7.80;99.90;;;;;;5089462;28;20199;-42
2022/02/18 08:01:04;;;;;;;12.97;3.70;;;8.00;99.90;;;;;;5081410;28;20340;-41
2022/02/18 08:03:30;;;;;;;15.03;3.67;;;7.90;99.90;;;;;;5087923;28;20208;-40
2022/02/18 08:05:58;;;;;;;15.53;3.57;;;8.00;99.90;;;;;;5089984;28;20193;-40
2022/02/18 08:08:24;;;;;;;18.87;4.40;;;8.10;99.90;;;;;;5089947;28;20188;-40
2022/02/18 08:10:51;;;;;;;14.87;3.30;;;8.10;99.90;;;;;;5089643;28;20430;-40
2022/02/18 08:13:17;;;;;;;10.97;3.00;;;8.10;99.90;;;;;;5090656;28;20219;-39
2022/02/18 08:15:43;;;;;;;12.27;3.87;;;8.20;99.90;;;;;;5081378;28;20478;-42
2022/02/18 08:18:08;;;;;;;14.63;3.40;;;8.20;99.90;;;;;;5089895;28;20827;-40
2022/02/18 08:20:34;;;;;;;10.30;3.53;;;8.20;99.90;;;;;;5089333;28;20189;-41
2022/02/18 08:23:00;;;;;;;6.30;2.53;;;8.30;99.90;;;;;;5089968;28;20323;-40
2022/02/18 08:25:25;;;;;;;10.87;3.33;;;8.20;99.90;;;;;;5088632;28;20279;-40
2022/02/18 08:27:51;;;;;;;12.23;4.23;;;8.60;99.90;;;;;;5089754;28;20181;-41
2022/02/18 08:30:17;;;;;;;8.70;3.07;;;8.40;99.90;;;;;;5079262;28;20181;-41
2022/02/18 08:32:42;;;;;;;6.23;2.77;;;8.40;99.90;;;;;;5089709;28;20195;-44
2022/02/18 08:35:09;;;;;;;11.70;3.90;;;8.40;99.90;;;;;;5089974;28;20212;-40
2022/02/18 08:37:34;;;;;;;11.27;3.53;;;8.50;99.90;;;;;;5089615;28;20242;-42
2022/02/18 08:40:00;;;;;;;6.23;2.73;;;8.50;99.90;;;;;;5089022;28;20422;-42
2022/02/18 08:42:26;;;;;;;9.57;3.00;;;8.50;99.90;;;;;;5089253;28;20201;-43
2022/02/18 08:44:52;;;;;;;12.73;3.97;;;8.50;99.90;;;;;;5083140;28;20525;-42
2022/02/18 08:47:18;;;;;;;6.60;2.53;;;8.60;99.90;;;;;;5078944;28;20198;-41
2022/02/18 08:49:44;;;;;;;11.77;3.30;;;8.70;99.90;;;;;;5088945;28;20554;-43
2022/02/18 08:52:09;;;;;;;11.37;4.10;;;9.00;99.90;;;;;;5088761;28;20426;-41
2022/02/18 08:54:35;;;;;;;8.80;2.83;;;8.80;99.90;;;;;;5089496;28;20662;-40
2022/02/18 08:57:01;;;;;;;5.27;2.50;;;8.90;99.90;;;;;;5088213;28;20322;-43
2022/02/18 08:59:27;;;;;;;6.27;2.50;;;8.90;99.90;;;;;;5087157;28;20422;-40
2022/02/18 09:01:53;;;;;;;5.53;2.57;;;8.80;99.90;;;;;;5077806;28;20469;-40
2022/02/18 09:04:18;;;;;;;6.33;2.50;;;9.30;99.90;;;;;;5088113;28;20176;-41
2022/02/18 09:06:45;;;;;;;13.73;2.87;;;8.90;99.90;;;;;;5087995;28;20275;-40
2022/02/18 09:09:11;;;;;;;9.33;2.73;;;9.10;99.90;;;;;;5089138;28;20192;-40
2022/02/18 09:11:36;;;;;;;7.97;3.10;;;9.10;99.90;;;;;;5088681;28;20440;-41
2022/02/18 09:14:02;;;;;;;9.90;2.80;;;9.30;99.90;;;;;;5087973;28;20188;-42
2022/02/18 09:16:28;;;;;;;6.17;1.77;;;9.20;99.90;;;;;;5074042;28;20271;-41
2022/02/18 09:18:54;;;;;;;6.73;2.40;;;9.20;99.90;;;;;;5088603;28;20237;-40
2022/02/18 09:21:21;;;;;;;7.07;2.63;;;9.20;99.90;;;;;;5088649;28;20670;-40
2022/02/18 09:23:46;;;;;;;9.87;3.37;;;9.30;99.90;;;;;;5088750;28;20427;-41
2022/02/18 09:26:12;;;;;;;8.50;2.10;;;9.30;99.90;;;;;;5089107;28;20456;-39
2022/02/18 09:28:38;;;;;;;9.63;2.83;;;9.30;99.90;;;;;;5088598;28;20200;-41
2022/02/18 09:31:03;;;;;;;9.80;1.90;;;9.60;99.90;;;;;;5077970;28;20185;-41
2022/02/18 09:33:29;;;;;;;8.70;1.97;;;9.40;99.90;;;;;;5086777;28;20216;-41
2022/02/18 09:35:55;;;;;;;7.40;2.40;;;9.60;99.90;;;;;;5088809;28;20634;-41
2022/02/18 09:38:21;;;;;;;7.73;2.37;;;9.40;99.90;;;;;;5088374;28;20985;-40
2022/02/18 09:40:48;;;;;;;9.20;2.40;;;9.70;99.90;;;;;;5088212;28;20196;-40
2022/02/18 09:43:17;;;;;;;4.43;1.93;;;9.50;99.90;;;;;;5086962;28;20515;-41
2022/02/18 09:45:45;;;;;;;5.73;1.67;;;9.60;99.90;;;;;;5083284;28;20434;-40
2022/02/18 09:48:14;;;;;;;5.67;2.20;;;9.60;99.90;;;;;;5088552;28;20720;-41
2022/02/18 09:50:40;;;;;;;5.47;1.90;;;9.60;99.90;;;;;;5087721;28;20588;-40
2022/02/18 09:53:07;;;;;;;6.47;2.03;;;9.70;99.90;;;;;;5088554;28;20422;-41
2022/02/18 09:55:34;;;;;;;6.90;1.60;;;9.70;99.90;;;;;;5088478;28;20446;-42
2022/02/18 09:58:00;;;;;;;2.80;1.40;;;9.70;99.90;;;;;;5087502;28;20936;-40
2022/02/18 10:00:26;;;;;;;4.17;1.60;;;9.70;99.90;;;;;;5082198;28;20467;-40
2022/02/18 10:02:52;;;;;;;6.80;1.77;;;9.80;99.90;;;;;;5082679;28;20490;-41
2022/02/18 10:05:18;;;;;;;3.43;1.30;;;9.70;99.90;;;;;;5088117;28;20180;-41
2022/02/18 10:08:15;;;;;;;2.30;1.00;;;9.90;99.90;;;;;;5088085;28;20419;-41
2022/02/18 10:10:42;;;;;;;6.73;1.93;;;9.80;99.90;;;;;;5087033;28;20453;-43
2022/02/18 10:13:29;;;;;;;6.00;1.73;;;9.90;99.90;;;;;;5088180;28;20796;-40
2022/02/18 10:15:56;;;;;;;5.73;1.77;;;9.90;99.90;;;;;;5081165;28;20960;-41
2022/02/18 10:18:22;;;;;;;3.63;1.77;;;10.20;99.90;;;;;;5084935;28;20538;-41
2022/02/18 10:20:49;;;;;;;2.70;1.23;;;10.00;99.90;;;;;;5087100;28;20428;-43
2022/02/18 10:23:17;;;;;;;2.50;1.63;;;10.20;99.90;;;;;;5087654;28;21015;-41
2022/02/18 10:25:45;;;;;;;3.20;1.60;;;10.20;99.90;;;;;;5087771;28;20421;-40
2022/02/18 10:28:16;;;;;;;4.10;1.30;;;10.10;99.90;;;;;;5087821;28;20427;-43
2022/02/18 10:30:43;;;;;;;5.60;1.50;;;10.30;99.90;;;;;;5080537;28;20436;-40
2022/02/18 10:33:22;;;;;;;3.10;1.23;;;10.20;99.90;;;;;;5082916;28;20420;-43
2022/02/18 10:35:56;;;;;;;2.63;1.00;;;10.20;99.90;;;;;;5079666;28;20798;-41
2022/02/18 10:38:30;;;;;;;1.60;0.90;;;10.20;99.90;;;;;;5087736;28;20532;-40
2022/02/18 10:40:59;;;;;;;2.93;1.30;;;10.30;99.90;;;;;;5086875;28;20792;-43
2022/02/18 10:43:26;;;;;;;4.10;1.17;;;10.30;99.90;;;;;;5087422;28;20557;-43
2022/02/18 10:45:52;;;;;;;3.30;1.63;;;10.50;99.90;;;;;;5081405;28;20442;-43
2022/02/18 10:48:20;;;;;;;3.73;1.20;;;10.40;99.90;;;;;;5085380;28;20418;-41
2022/02/18 10:51:06;;;;;;;2.30;1.33;;;10.30;99.90;;;;;;5087217;28;20430;-40
2022/02/18 10:53:38;;;;;;;1.87;0.87;;;10.60;99.90;;;;;;5075539;28;20430;-40
2022/02/18 10:56:05;;;;;;;1.13;1.00;;;10.60;99.90;;;;;;5087342;28;20470;-40
2022/02/18 10:58:39;;;;;;;3.70;1.20;;;10.40;99.90;;;;;;5086129;28;20785;-41
2022/02/18 11:01:15;;;;;;;1.83;1.10;;;10.60;99.90;;;;;;5081028;28;20513;-41
2022/02/18 11:03:46;;;;;;;3.03;1.13;;;10.60;99.90;;;;;;5079752;28;20485;-42
2022/02/18 11:06:23;;;;;;;2.43;1.20;;;10.70;99.90;;;;;;5087102;28;20737;-43
2022/02/18 11:09:08;;;;;;;1.70;1.20;;;10.60;99.90;;;;;;5087023;28;20437;-40
2022/02/18 11:11:38;;;;;;;1.43;0.70;;;10.80;99.90;;;;;;5086922;28;20410;-40
2022/02/18 11:14:08;;;;;;;4.80;1.20;;;10.50;99.90;;;;;;5090598;28;20788;-40
2022/02/18 11:16:36;;;;;;;2.00;0.90;;;10.70;99.90;;;;;;5080959;28;20767;-44
2022/02/18 11:19:02;;;;;;;2.30;1.07;;;10.70;99.90;;;;;;5088974;28;20723;-41
2022/02/18 11:21:29;;;;;;;2.10;1.13;;;10.60;99.90;;;;;;5090366;28;20422;-44
2022/02/18 11:23:56;;;;;;;3.00;1.60;;;10.70;99.90;;;;;;5090915;28;20956;-43
2022/02/18 11:26:23;;;;;;;1.80;1.03;;;10.80;99.90;;;;;;5091297;28;20614;-42
2022/02/18 11:28:50;;;;;;;2.37;1.57;;;10.90;99.90;;;;;;5090831;28;20464;-43
2022/02/18 11:31:30;;;;;;;3.10;1.33;;;11.00;99.90;;;;;;5082154;28;20488;-40
2022/02/18 11:34:21;;;;;;;5.03;1.63;;;11.00;99.90;;;;;;5084086;28;20406;-40
2022/02/18 11:36:49;;;;;;;1.70;1.00;;;10.90;99.90;;;;;;5088151;28;20410;-39
2022/02/18 11:39:15;;;;;;;2.07;1.00;;;10.90;99.90;;;;;;5090901;28;20847;-41
2022/02/18 11:42:06;;;;;;;1.47;1.23;;;11.00;99.90;;;;;;5090503;28;20485;-45
2022/02/18 11:44:34;;;;;;;1.30;1.10;;;11.00;99.90;;;;;;5090503;28;20184;-41
2022/02/18 11:47:20;;;;;;;2.17;1.10;;;11.00;99.90;;;;;;5082163;28;20463;-40
2022/02/18 11:49:47;;;;;;;1.03;0.87;;;11.00;99.90;;;;;;5087182;28;20418;-41
2022/02/18 11:52:15;;;;;;;1.93;0.97;;;11.00;99.90;;;;;;5090709;28;20418;-41
2022/02/18 11:54:42;;;;;;;1.10;1.00;;;11.10;99.90;;;;;;5077099;28;20441;-41
2022/02/18 11:57:18;;;;;;;2.03;0.90;;;11.00;99.90;;;;;;5090129;28;20426;-40
2022/02/18 12:00:00;;;;;;;1.43;0.87;;;10.90;99.90;;;;;;5090156;28;20452;-43
2022/02/18 12:02:40;;;;;;;1.87;1.27;;;11.10;99.90;;;;;;5080794;28;20463;-43
2022/02/18 12:05:08;;;;;;;2.53;1.20;;;11.40;99.90;;;;;;5090610;28;20481;-47
2022/02/18 12:07:37;;;;;;;2.13;1.07;;;11.10;99.90;;;;;;5089274;28;20429;-43
2022/02/18 12:10:10;;;;;;;2.00;1.13;;;11.10;99.90;;;;;;5089655;28;20517;-40
2022/02/18 12:12:38;;;;;;;1.00;0.70;;;11.20;99.90;;;;;;5090576;28;20433;-41
2022/02/18 12:15:23;;;;;;;1.30;1.00;;;11.20;99.90;;;;;;5090500;28;20559;-42
2022/02/18 12:18:02;;;;;;;1.00;0.73;;;11.20;99.90;;;;;;5079982;28;20434;-41
2022/02/18 12:20:30;;;;;;;1.37;0.90;;;11.40;99.90;;;;;;5087329;28;20664;-41
2022/02/18 12:22:56;;;;;;;0.70;0.57;;;11.30;99.90;;;;;;5090327;28;20497;-40
2022/02/18 12:25:27;;;;;;;1.13;0.80;;;11.30;99.90;;;;;;5088208;28;20977;-41
2022/02/18 12:28:14;;;;;;;1.03;0.70;;;11.30;99.90;;;;;;5088902;28;20459;-42
2022/02/18 12:30:45;;;;;;;1.27;0.80;;;11.40;99.90;;;;;;5087913;28;20414;-41
2022/02/18 12:33:11;;;;;;;1.50;0.73;;;11.40;99.90;;;;;;5081854;28;20462;-41
2022/02/18 12:35:37;;;;;;;1.87;0.90;;;11.60;99.90;;;;;;5088966;28;20446;-41
2022/02/18 12:38:05;;;;;;;0.80;0.70;;;11.50;99.90;;;;;;5089642;28;20422;-41
2022/02/18 12:40:35;;;;;;;3.30;0.80;;;11.70;99.90;;;;;;5089241;28;20422;-40
2022/02/18 12:43:05;;;;;;;1.20;0.93;;;11.60;99.90;;;;;;5084789;28;20607;-42
2022/02/18 12:45:54;;;;;;;1.60;0.90;;;11.60;99.90;;;;;;5090663;28;20807;-41
2022/02/18 12:48:35;;;;;;;1.10;0.80;;;11.70;99.90;;;;;;5078759;28;20454;-42
2022/02/18 12:51:07;;;;;;;0.90;0.70;;;11.80;99.90;;;;;;5088555;28;20905;-40